Startpagina
METAR-TAF:

METAR-TAF

Vliegvelden :

Karachi, Pakistan

breedte: 24-54N, lengte: 067-08E, hoogte: 21 m

Actueel weer

Dit bericht is 39 minuten geleden gemaakt, om 08:55 UTC
Wind 10 kt uit het westzuidwesten
Temperatuur 31°C
Vochtigheid 52%
Druk 1007 hPa
Zicht: 6000 m
Gebroken wolken op 2000 ft

METAR: OPKC 190855Z 24010KT 6000 BKN020 31/20 Q1007 NOSIG

Tijdstip: 14:34 (09:34 UTC)

Verwachting

Dit bericht is 3 uur en het 4 minuten geleden gemaakt, om 06:30 UTC
Verwachting geldig van 19 om 09 UTC tot 19 om 18 UTC
Wind 10 kt uit het westzuidwesten met uitschieters tot 20 kt
Zicht: 5000 m
Verspreide wolken op 2500 ft
Heiigheid

TAF: OPKC 190630Z 1909/1918 24010G20KT 5000 HZ SCT025

Waarnemingen en weersverwachtingen van meer dan 4000 vliegvelden (METAR en TAF).

De beschikbare stations zijn de gele en rode punten op de kaart.

Ga met uw muis naar het station om de naam te zien.

Klik dan om waarnemingen en weersverwachtingen te zien.

kaart wijzigen: klik op de groene knoppen met een zwart kruis om in te zoomen, op de groene knop met een streepje om uit te zoomen of op de groene pijlen voor aangrenzende kaarten.


METAR-TAF: